createdAt,value
2022-07-27T00:04:29.477Z,21.00
2022-07-27T00:09:31.417Z,20.80
2022-07-27T00:14:33.406Z,19.10
2022-07-27T00:19:35.277Z,21.10
2022-07-27T00:24:36.972Z,21.00
2022-07-27T00:29:38.828Z,19.90
2022-07-27T00:34:40.718Z,19.80
2022-07-27T00:39:43.613Z,18.90
2022-07-27T00:44:46.005Z,20.00
2022-07-27T00:49:48.521Z,20.50
2022-07-27T00:54:50.686Z,19.40
2022-07-27T00:59:52.465Z,19.60
2022-07-27T01:04:57.072Z,18.70
2022-07-27T01:10:00.029Z,17.90
2022-07-27T01:15:01.924Z,18.10
2022-07-27T01:20:05.114Z,18.40
2022-07-27T01:25:07.313Z,19.50
2022-07-27T01:30:27.801Z,18.40
2022-07-27T01:35:29.978Z,21.40
2022-07-27T01:40:32.073Z,18.30
2022-07-27T01:45:33.956Z,18.60
2022-07-27T01:50:35.835Z,16.40
2022-07-27T01:55:39.142Z,18.50
2022-07-27T02:00:41.744Z,17.60
2022-07-27T02:05:43.671Z,16.00
2022-07-27T02:11:04.242Z,15.80
2022-07-27T02:16:12.400Z,15.90
2022-07-27T02:21:19.192Z,16.20
2022-07-27T02:26:20.969Z,15.50
2022-07-27T02:31:23.130Z,14.90
2022-07-27T02:36:24.907Z,15.60
2022-07-27T02:41:26.892Z,16.80
2022-07-27T02:46:28.802Z,16.70
2022-07-27T02:51:39.512Z,16.70
2022-07-27T02:56:42.969Z,13.30
2022-07-27T03:01:45.299Z,13.50
2022-07-27T03:06:47.653Z,13.90
2022-07-27T03:11:49.427Z,14.20
2022-07-27T03:16:51.063Z,13.60
2022-07-27T03:22:02.200Z,13.50
2022-07-27T03:27:04.285Z,14.70
2022-07-27T03:32:06.469Z,13.30
2022-07-27T03:37:08.243Z,13.00
2022-07-27T03:42:10.026Z,12.80
2022-07-27T03:47:11.959Z,13.00
2022-07-27T03:52:17.622Z,11.90
2022-07-27T03:57:19.891Z,13.10
2022-07-27T04:02:21.743Z,12.50
2022-07-27T04:07:23.724Z,13.40
2022-07-27T04:12:25.504Z,12.40
2022-07-27T04:17:55.407Z,12.50
2022-07-27T04:22:49.741Z,11.80
2022-07-27T04:27:54.820Z,12.10
2022-07-27T04:32:56.570Z,12.70
2022-07-27T04:37:59.798Z,13.60
2022-07-27T04:43:03.004Z,13.00
2022-07-27T04:48:08.660Z,10.40
2022-07-27T04:53:10.955Z,12.40
2022-07-27T04:58:13.540Z,7.40
2022-07-27T05:03:15.341Z,9.80
2022-07-27T05:08:17.731Z,36.40
2022-07-27T05:13:19.805Z,9.50
2022-07-27T05:18:21.579Z,9.10
2022-07-27T05:23:23.379Z,8.00
2022-07-27T05:28:25.120Z,9.20
2022-07-27T05:33:27.021Z,9.30
2022-07-27T05:38:28.996Z,8.40
2022-07-27T05:43:30.642Z,8.30
2022-07-27T05:48:33.176Z,8.10
2022-07-27T05:53:35.461Z,8.60
2022-07-27T05:58:37.752Z,7.70
2022-07-27T06:03:39.437Z,8.40
2022-07-27T06:08:41.249Z,7.90
2022-07-27T06:13:43.593Z,8.20
2022-07-27T06:18:45.369Z,11.20
2022-07-27T06:23:48.681Z,8.30
2022-07-27T06:28:50.662Z,8.90
2022-07-27T06:33:53.947Z,11.30
2022-07-27T06:38:58.106Z,10.20
2022-07-27T06:43:59.985Z,10.20
2022-07-27T06:49:01.766Z,15.30
2022-07-27T06:54:05.306Z,14.50
2022-07-27T06:59:07.159Z,15.20
2022-07-27T07:04:09.135Z,12.20
2022-07-27T07:09:11.629Z,10.70
2022-07-27T07:14:13.656Z,11.30
2022-07-27T07:19:16.011Z,16.90
2022-07-27T07:24:18.096Z,12.60
2022-07-27T07:29:19.948Z,13.40
2022-07-27T07:34:21.750Z,12.70
2022-07-27T07:39:26.659Z,14.50
2022-07-27T07:44:32.471Z,15.30
2022-07-27T07:49:39.476Z,17.40
2022-07-27T07:54:41.969Z,18.50
2022-07-27T07:59:43.847Z,17.30
2022-07-27T08:04:45.499Z,23.90
2022-07-27T08:09:47.404Z,23.20
2022-07-27T08:14:49.080Z,26.60
2022-07-27T08:19:50.731Z,25.10
2022-07-27T08:24:52.533Z,25.60
2022-07-27T08:29:54.348Z,25.80
2022-07-27T08:34:56.814Z,26.80
2022-07-27T08:40:38.860Z,27.50
2022-07-27T08:45:21.036Z,26.60
2022-07-27T08:50:23.356Z,27.50
2022-07-27T08:55:25.041Z,26.00
2022-07-27T09:00:27.731Z,24.30
2022-07-27T09:05:37.101Z,25.50
2022-07-27T09:10:39.347Z,27.10
2022-07-27T09:16:15.818Z,23.90
2022-07-27T09:21:19.568Z,25.00
2022-07-27T09:26:32.362Z,24.50
2022-07-27T09:31:44.532Z,22.90
2022-07-27T09:36:51.183Z,22.90
2022-07-27T09:41:55.311Z,22.50
2022-07-27T09:46:57.600Z,21.30
2022-07-27T09:52:02.245Z,21.60
2022-07-27T09:57:04.675Z,17.50
2022-07-27T10:02:06.855Z,13.40
2022-07-27T10:07:13.167Z,13.70
2022-07-27T10:12:15.430Z,13.20
2022-07-27T10:17:17.926Z,13.50
2022-07-27T10:22:38.339Z,11.30
2022-07-27T10:27:47.344Z,12.40
2022-07-27T10:32:49.290Z,13.20
2022-07-27T10:38:06.651Z,10.60
2022-07-27T10:43:17.317Z,11.00
2022-07-27T10:48:37.600Z,11.40
2022-07-27T10:54:10.590Z,10.90
2022-07-27T10:59:03.175Z,11.20
2022-07-27T11:04:09.169Z,10.10
2022-07-27T11:10:00.146Z,9.20
2022-07-27T11:14:46.499Z,7.90
2022-07-27T11:19:54.219Z,8.40
2022-07-27T11:24:56.097Z,8.10
2022-07-27T11:29:58.180Z,9.40
2022-07-27T11:35:02.044Z,8.60
2022-07-27T11:40:36.990Z,7.40
2022-07-27T11:45:28.705Z,7.60
2022-07-27T11:50:30.890Z,8.40
2022-07-27T11:55:33.392Z,8.40
2022-07-27T12:00:41.505Z,6.20
2022-07-27T12:05:49.650Z,6.30
2022-07-27T12:10:58.310Z,7.60
2022-07-27T12:16:00.492Z,7.90
2022-07-27T12:21:02.234Z,7.30
2022-07-27T12:26:23.471Z,5.50
2022-07-27T12:31:25.421Z,4.50
2022-07-27T12:36:27.834Z,6.30
2022-07-27T12:41:30.991Z,5.00
2022-07-27T12:46:33.099Z,4.80
2022-07-27T12:51:35.024Z,3.80
2022-07-27T12:56:37.032Z,4.00
2022-07-27T13:01:39.088Z,4.10
2022-07-27T13:06:41.069Z,3.10
2022-07-27T13:11:46.304Z,2.80
2022-07-27T13:16:49.927Z,2.70
2022-07-27T13:21:52.648Z,3.20
2022-07-27T13:26:54.453Z,3.10
2022-07-27T13:31:57.501Z,3.00
2022-07-27T13:36:59.722Z,3.20
2022-07-27T13:42:01.528Z,3.00
2022-07-27T13:47:03.476Z,2.80
2022-07-27T13:52:05.975Z,2.70
2022-07-27T13:57:07.706Z,2.60
2022-07-27T14:02:10.527Z,2.40
2022-07-27T14:07:13.552Z,2.70
2022-07-27T14:12:15.390Z,2.30
2022-07-27T14:17:17.343Z,2.50
2022-07-27T14:22:19.196Z,2.10
2022-07-27T14:27:21.275Z,1.80
2022-07-27T14:32:23.158Z,2.30
2022-07-27T14:37:25.039Z,1.40
2022-07-27T14:42:26.812Z,1.40
2022-07-27T14:47:28.717Z,1.60
2022-07-27T14:52:30.846Z,1.70
2022-07-27T14:57:42.782Z,1.50
2022-07-27T15:02:45.166Z,1.50
2022-07-27T15:07:47.805Z,1.50
2022-07-27T15:12:49.773Z,1.40
2022-07-27T15:17:51.754Z,1.60
2022-07-27T15:22:56.188Z,1.50
2022-07-27T15:27:58.327Z,1.30
2022-07-27T15:33:00.404Z,2.10
2022-07-27T15:38:02.333Z,1.20
2022-07-27T15:43:04.937Z,1.20
2022-07-27T15:48:10.955Z,1.60
2022-07-27T15:53:14.351Z,1.90
2022-07-27T15:58:19.693Z,1.30
2022-07-27T16:03:21.779Z,1.40
2022-07-27T16:08:23.783Z,1.10
2022-07-27T16:13:25.742Z,2.00
2022-07-27T16:18:27.928Z,1.50
2022-07-27T16:23:29.905Z,1.60
2022-07-27T16:28:32.121Z,2.40
2022-07-27T16:33:33.894Z,1.70
2022-07-27T16:38:36.159Z,1.60
2022-07-27T16:43:39.165Z,1.50
2022-07-27T16:48:43.417Z,1.80
2022-07-27T16:53:46.330Z,1.60
2022-07-27T16:58:48.182Z,1.20
2022-07-27T17:03:50.282Z,1.30
2022-07-27T17:08:52.559Z,2.60
2022-07-27T17:13:59.300Z,1.60
2022-07-27T17:19:01.544Z,1.90
2022-07-27T17:24:03.314Z,1.80
2022-07-27T17:29:05.407Z,1.50
2022-07-27T17:34:07.310Z,1.60
2022-07-27T17:39:11.682Z,1.90
2022-07-27T17:44:13.904Z,1.80
2022-07-27T17:49:16.212Z,2.00
2022-07-27T17:54:18.383Z,1.30
2022-07-27T17:59:37.185Z,1.80
2022-07-27T18:04:40.277Z,1.40
2022-07-27T18:09:42.865Z,2.10
2022-07-27T18:15:04.608Z,1.80
2022-07-27T18:20:07.681Z,2.50
2022-07-27T18:25:10.052Z,2.30
2022-07-27T18:30:12.601Z,2.10
2022-07-27T18:35:14.407Z,1.90
2022-07-27T18:40:16.667Z,2.60
2022-07-27T18:45:18.754Z,4.00
2022-07-27T18:50:20.736Z,3.00
2022-07-27T18:55:25.293Z,3.30
2022-07-27T19:00:27.357Z,2.60
2022-07-27T19:05:40.375Z,2.50
2022-07-27T19:10:44.023Z,3.10
2022-07-27T19:15:45.993Z,2.80
2022-07-27T19:20:47.810Z,2.80
2022-07-27T19:25:49.558Z,2.90
2022-07-27T19:30:51.730Z,3.40
2022-07-27T19:35:55.879Z,2.90
2022-07-27T19:40:57.657Z,3.50
2022-07-27T19:45:59.596Z,3.30
2022-07-27T19:51:06.657Z,3.40
2022-07-27T19:56:09.369Z,3.40
2022-07-27T20:01:12.151Z,3.20
2022-07-27T20:06:16.589Z,3.00
2022-07-27T20:11:18.563Z,3.10
2022-07-27T20:16:20.585Z,2.40
2022-07-27T20:21:23.830Z,3.50
2022-07-27T20:26:25.736Z,2.40
2022-07-27T20:31:28.538Z,2.00
2022-07-27T20:36:30.317Z,2.90
2022-07-27T20:41:32.706Z,2.70
2022-07-27T20:46:34.354Z,2.60
2022-07-27T20:51:36.159Z,2.80
2022-07-27T20:56:37.860Z,2.80
2022-07-27T21:01:40.281Z,3.10
2022-07-27T21:06:42.231Z,2.00
2022-07-27T21:11:44.310Z,1.90
2022-07-27T21:16:46.180Z,2.10
2022-07-27T21:21:48.151Z,2.10
2022-07-27T21:26:50.755Z,1.80
2022-07-27T21:31:52.553Z,1.70
2022-07-27T21:36:54.248Z,1.80
2022-07-27T21:42:01.476Z,1.80
2022-07-27T21:47:09.950Z,2.50
2022-07-27T21:52:15.814Z,3.70
2022-07-27T21:57:17.695Z,3.10
2022-07-27T22:02:19.640Z,2.20
2022-07-27T22:07:22.477Z,2.80
2022-07-27T22:12:24.464Z,1.80
2022-07-27T22:17:26.241Z,1.70
2022-07-27T22:22:28.117Z,2.10
2022-07-27T22:27:29.828Z,2.40
2022-07-27T22:32:31.676Z,1.50
2022-07-27T22:37:33.452Z,2.30
2022-07-27T22:42:35.099Z,1.90
2022-07-27T22:47:36.798Z,1.50
2022-07-27T22:52:39.494Z,1.60
2022-07-27T22:57:41.583Z,1.10
2022-07-27T23:02:43.460Z,1.40
2022-07-27T23:07:45.444Z,1.10
2022-07-27T23:12:47.140Z,1.30
2022-07-27T23:17:49.512Z,1.40
2022-07-27T23:22:51.392Z,1.40
2022-07-27T23:27:58.084Z,1.40
2022-07-27T23:33:00.164Z,1.90
2022-07-27T23:38:01.993Z,1.50
2022-07-27T23:43:03.717Z,1.20
2022-07-27T23:48:05.535Z,1.60
2022-07-27T23:53:09.049Z,1.80
2022-07-27T23:58:11.205Z,1.80
